createdAt,value
2023-06-03T00:00:26.892Z,0.00
2023-06-03T00:01:26.942Z,0.00
2023-06-03T00:02:26.949Z,0.00
2023-06-03T00:03:27.025Z,0.00
2023-06-03T00:04:26.893Z,0.00
2023-06-03T00:05:26.886Z,0.00
2023-06-03T00:06:26.935Z,0.00
2023-06-03T00:07:26.731Z,0.00
2023-06-03T00:08:26.799Z,0.00
2023-06-03T00:09:26.727Z,0.00
2023-06-03T00:10:26.763Z,0.00
2023-06-03T00:11:26.697Z,0.00
2023-06-03T00:12:26.669Z,0.00
2023-06-03T00:13:26.675Z,0.00
2023-06-03T00:14:26.700Z,0.00
2023-06-03T00:15:26.631Z,0.00
2023-06-03T00:16:26.689Z,0.00
2023-06-03T00:17:26.605Z,0.00
2023-06-03T00:18:26.654Z,0.00
2023-06-03T00:19:26.606Z,0.00
2023-06-03T00:20:26.600Z,0.00
2023-06-03T00:21:26.620Z,0.00
2023-06-03T00:22:26.582Z,0.00
2023-06-03T00:23:26.669Z,0.00
2023-06-03T00:24:26.531Z,0.00
2023-06-03T00:25:26.535Z,0.00
2023-06-03T00:26:26.533Z,0.00
2023-06-03T00:27:26.524Z,0.00
2023-06-03T00:28:26.507Z,0.00
2023-06-03T00:29:26.571Z,0.00
2023-06-03T00:30:26.471Z,0.00
2023-06-03T00:31:26.544Z,0.00
2023-06-03T00:32:26.467Z,0.00
2023-06-03T00:33:26.588Z,0.00
2023-06-03T00:34:26.450Z,0.00
2023-06-03T00:35:26.457Z,0.00
2023-06-03T00:36:26.428Z,0.00
2023-06-03T00:37:26.473Z,0.00
2023-06-03T00:38:26.415Z,0.00
2023-06-03T00:39:26.412Z,0.00
2023-06-03T00:40:26.415Z,0.00
2023-06-03T00:41:26.399Z,0.00
2023-06-03T00:42:26.369Z,0.00
2023-06-03T00:43:26.366Z,0.00
2023-06-03T00:44:26.360Z,0.00
2023-06-03T00:45:26.317Z,0.00
2023-06-03T00:46:26.474Z,0.00
2023-06-03T00:47:26.339Z,0.00
2023-06-03T00:48:26.314Z,0.00
2023-06-03T00:49:26.282Z,0.00
2023-06-03T00:50:26.280Z,0.00
2023-06-03T00:51:26.300Z,0.00
2023-06-03T00:52:26.317Z,0.00
2023-06-03T00:53:26.243Z,0.00
2023-06-03T00:54:26.260Z,0.00
2023-06-03T00:55:26.222Z,0.00
2023-06-03T00:56:26.234Z,0.00
2023-06-03T00:57:26.233Z,0.00
2023-06-03T00:58:26.212Z,0.00
2023-06-03T00:59:26.215Z,0.00
2023-06-03T01:00:26.200Z,0.00
2023-06-03T01:01:26.212Z,0.00
2023-06-03T01:02:26.213Z,0.00
2023-06-03T01:03:26.230Z,0.00
2023-06-03T01:04:26.149Z,0.00
2023-06-03T01:05:26.131Z,0.00
2023-06-03T01:06:26.132Z,0.00
2023-06-03T01:07:26.140Z,0.00
2023-06-03T01:08:26.130Z,0.00
2023-06-03T01:09:26.074Z,0.00
2023-06-03T01:10:26.156Z,0.00
2023-06-03T01:11:26.068Z,0.00
2023-06-03T01:12:26.049Z,0.00
2023-06-03T01:13:26.055Z,0.00
2023-06-03T01:14:26.047Z,0.00
2023-06-03T01:15:26.045Z,0.00
2023-06-03T01:16:26.156Z,0.00
2023-06-03T01:17:26.065Z,0.00
2023-06-03T01:18:25.967Z,0.00
2023-06-03T01:19:26.021Z,0.00
2023-06-03T01:20:25.960Z,0.00
2023-06-03T01:21:25.982Z,0.00
2023-06-03T01:22:25.959Z,0.00
2023-06-03T01:23:26.102Z,0.00
2023-06-03T01:24:25.947Z,0.00
2023-06-03T01:25:25.909Z,0.00
2023-06-03T01:26:25.930Z,0.00
2023-06-03T01:27:25.889Z,0.00
2023-06-03T01:28:25.918Z,0.00
2023-06-03T01:29:25.913Z,0.00
2023-06-03T01:30:25.849Z,0.00
2023-06-03T01:31:25.873Z,0.00
2023-06-03T01:32:25.889Z,0.00
2023-06-03T01:33:25.838Z,0.00
2023-06-03T01:34:25.860Z,0.00
2023-06-03T01:35:25.835Z,0.00
2023-06-03T01:36:25.813Z,0.00
2023-06-03T01:37:25.787Z,0.00
2023-06-03T01:38:25.786Z,0.00
2023-06-03T01:39:25.806Z,0.00
2023-06-03T01:40:25.757Z,0.00
2023-06-03T01:41:25.756Z,0.00
2023-06-03T01:42:25.807Z,0.00
2023-06-03T01:43:25.728Z,0.00
2023-06-03T01:44:25.719Z,0.00
2023-06-03T01:45:25.719Z,0.00
2023-06-03T01:46:25.754Z,0.00
2023-06-03T01:47:25.725Z,0.00
2023-06-03T01:48:25.726Z,0.00
2023-06-03T01:49:25.690Z,0.00
2023-06-03T01:50:25.662Z,0.00
2023-06-03T01:51:25.674Z,0.00
2023-06-03T01:52:25.584Z,1.00
2023-06-03T01:53:25.625Z,0.00
2023-06-03T01:54:25.653Z,0.00
2023-06-03T01:55:25.666Z,0.00
2023-06-03T01:56:25.666Z,0.00
2023-06-03T01:57:27.369Z,1.00
2023-06-03T01:58:25.586Z,1.00
2023-06-03T01:59:25.514Z,1.00
2023-06-03T02:00:25.575Z,1.00
2023-06-03T02:01:25.644Z,1.00
2023-06-03T02:02:25.556Z,1.00
2023-06-03T02:03:25.566Z,2.00
2023-06-03T02:04:25.517Z,2.00
2023-06-03T02:05:25.496Z,2.00
2023-06-03T02:06:25.464Z,2.00
2023-06-03T02:07:25.468Z,2.00
2023-06-03T02:08:25.467Z,1.00
2023-06-03T02:09:25.429Z,1.00
2023-06-03T02:10:25.396Z,3.00
2023-06-03T02:11:25.401Z,2.00
2023-06-03T02:12:25.426Z,2.00
2023-06-03T02:13:25.373Z,3.00
2023-06-03T02:14:25.396Z,3.00
2023-06-03T02:15:26.070Z,7.00
2023-06-03T02:16:25.384Z,6.00
2023-06-03T02:17:25.381Z,8.00
2023-06-03T02:18:25.319Z,8.00
2023-06-03T02:19:25.347Z,4.00
2023-06-03T02:20:25.302Z,4.00
2023-06-03T02:21:25.307Z,8.00
2023-06-03T02:22:25.310Z,8.00
2023-06-03T02:23:25.299Z,12.00
2023-06-03T02:24:25.309Z,13.00
2023-06-03T02:25:25.236Z,8.00
2023-06-03T02:26:25.225Z,14.00
2023-06-03T02:27:25.237Z,18.00
2023-06-03T02:28:25.235Z,22.00
2023-06-03T02:29:25.232Z,22.00
2023-06-03T02:30:25.218Z,20.00
2023-06-03T02:31:25.238Z,25.00
2023-06-03T02:32:25.228Z,27.00
2023-06-03T02:33:25.180Z,27.00
2023-06-03T02:34:25.153Z,32.00
2023-06-03T02:35:25.162Z,33.00
2023-06-03T02:36:25.143Z,39.00
2023-06-03T02:37:25.142Z,39.00
2023-06-03T02:38:25.124Z,37.00
2023-06-03T02:39:25.127Z,44.00
2023-06-03T02:40:25.146Z,47.00
2023-06-03T02:41:25.129Z,48.00
2023-06-03T02:42:25.057Z,55.00
2023-06-03T02:43:25.057Z,59.00
2023-06-03T02:44:25.087Z,61.00
2023-06-03T02:45:25.056Z,70.00
2023-06-03T02:46:25.115Z,82.00
2023-06-03T02:47:25.081Z,97.00
2023-06-03T02:48:25.026Z,112.00
2023-06-03T02:49:24.988Z,120.00
2023-06-03T02:50:25.041Z,129.00
2023-06-03T02:51:25.045Z,142.00
2023-06-03T02:52:24.997Z,156.00
2023-06-03T02:53:24.966Z,167.00
2023-06-03T02:54:24.962Z,182.00
2023-06-03T02:55:24.958Z,193.00
2023-06-03T02:56:24.927Z,215.00
2023-06-03T02:57:24.930Z,234.00
2023-06-03T02:58:24.928Z,256.00
2023-06-03T02:59:24.923Z,278.00
2023-06-03T03:00:24.934Z,300.00
2023-06-03T03:01:24.939Z,322.00
2023-06-03T03:02:24.967Z,348.00
2023-06-03T03:03:24.998Z,378.00
2023-06-03T03:04:24.844Z,412.00
2023-06-03T03:05:24.892Z,438.00
2023-06-03T03:06:24.841Z,470.00
2023-06-03T03:07:24.839Z,510.00
2023-06-03T03:08:24.832Z,536.00
2023-06-03T03:09:24.824Z,572.00
2023-06-03T03:10:24.853Z,611.00
2023-06-03T03:11:24.771Z,648.00
2023-06-03T03:12:24.788Z,685.00
2023-06-03T03:13:24.757Z,724.00
2023-06-03T03:14:24.758Z,769.00
2023-06-03T03:15:24.761Z,805.00
2023-06-03T03:16:24.799Z,839.00
2023-06-03T03:17:24.749Z,872.00
2023-06-03T03:18:24.730Z,910.00
2023-06-03T03:19:24.699Z,952.00
2023-06-03T03:20:24.695Z,984.00
2023-06-03T03:21:24.676Z,1024.00
2023-06-03T03:22:24.686Z,1055.00
2023-06-03T03:23:24.680Z,1088.00
2023-06-03T03:24:24.700Z,1130.00
2023-06-03T03:25:24.704Z,1162.00
2023-06-03T03:26:24.610Z,1194.00
2023-06-03T03:27:24.598Z,1229.00
2023-06-03T03:28:24.623Z,1271.00
2023-06-03T03:29:24.682Z,1305.00
2023-06-03T03:30:24.576Z,1346.00
2023-06-03T03:31:24.606Z,1384.00
2023-06-03T03:32:24.575Z,1422.00
2023-06-03T03:33:24.602Z,1457.00
2023-06-03T03:34:24.582Z,1496.00
2023-06-03T03:35:24.548Z,1534.00
2023-06-03T03:36:24.653Z,1575.00
2023-06-03T03:37:24.569Z,1603.00
2023-06-03T03:38:24.506Z,1629.00
2023-06-03T03:39:24.520Z,1654.00
2023-06-03T03:40:24.514Z,1677.00
2023-06-03T03:41:24.519Z,1696.00
2023-06-03T03:42:24.510Z,1716.00
2023-06-03T03:43:24.453Z,1744.00
2023-06-03T03:44:24.444Z,1772.00
2023-06-03T03:45:24.509Z,1805.00
2023-06-03T03:46:24.610Z,1840.00
2023-06-03T03:47:24.503Z,1865.00
2023-06-03T03:48:24.380Z,1908.00
2023-06-03T03:49:24.387Z,1959.00
2023-06-03T03:50:24.401Z,2005.00
2023-06-03T03:51:24.479Z,2045.00
2023-06-03T03:52:26.535Z,2056.00
2023-06-03T03:53:24.435Z,2087.00
2023-06-03T03:54:24.426Z,2104.00
2023-06-03T03:55:24.323Z,2127.00
2023-06-03T03:56:24.555Z,2150.00
2023-06-03T03:57:24.331Z,2175.00
2023-06-03T03:58:24.419Z,2194.00
2023-06-03T03:59:24.294Z,2224.00
2023-06-03T04:00:24.277Z,2248.00
2023-06-03T04:01:24.298Z,2286.00
2023-06-03T04:02:24.424Z,2316.00
2023-06-03T04:03:24.340Z,2354.00
2023-06-03T04:04:24.276Z,2394.00
2023-06-03T04:05:24.275Z,2434.00
2023-06-03T04:06:24.227Z,2464.00
2023-06-03T04:07:24.206Z,2492.00
2023-06-03T04:08:24.174Z,2522.00
2023-06-03T04:09:24.232Z,2559.00
2023-06-03T04:10:24.166Z,2596.00
2023-06-03T04:11:24.194Z,2630.00
2023-06-03T04:12:24.193Z,2658.00
2023-06-03T04:13:24.154Z,2694.00
2023-06-03T04:14:24.146Z,2722.00
2023-06-03T04:15:24.143Z,2753.00
2023-06-03T04:16:24.253Z,2783.00
2023-06-03T04:17:24.183Z,2775.00
2023-06-03T04:18:24.156Z,2800.00
2023-06-03T04:19:24.077Z,2836.00
2023-06-03T04:20:24.116Z,2865.00
2023-06-03T04:21:24.222Z,2889.00
2023-06-03T04:22:24.129Z,2922.00
2023-06-03T04:23:24.103Z,2964.00
2023-06-03T04:24:24.036Z,3024.00
2023-06-03T04:25:24.143Z,2981.00
2023-06-03T04:26:24.124Z,2901.00
2023-06-03T04:27:24.012Z,3045.00
2023-06-03T04:28:24.047Z,3095.00
2023-06-03T04:29:24.224Z,3163.00
2023-06-03T04:30:24.043Z,3214.00
2023-06-03T04:31:24.133Z,3201.00
2023-06-03T04:32:24.012Z,3204.00
2023-06-03T04:33:24.018Z,3301.00
2023-06-03T04:34:23.961Z,3355.00
2023-06-03T04:35:23.961Z,3393.00
2023-06-03T04:36:23.925Z,3411.00
2023-06-03T04:37:24.078Z,3454.00
2023-06-03T04:38:23.965Z,3510.00
2023-06-03T04:39:23.895Z,3554.00
2023-06-03T04:40:23.978Z,3571.00
2023-06-03T04:41:23.940Z,3618.00
2023-06-03T04:42:23.829Z,3723.00
2023-06-03T04:43:23.825Z,3615.00
2023-06-03T04:44:23.845Z,3481.00
2023-06-03T04:45:23.850Z,3729.00
2023-06-03T04:46:23.939Z,3914.00
2023-06-03T04:47:23.839Z,4108.00
2023-06-03T04:48:23.935Z,3732.00
2023-06-03T04:49:23.870Z,3872.00
2023-06-03T04:50:23.773Z,1654.00
2023-06-03T04:51:23.771Z,3647.00
2023-06-03T04:52:23.756Z,5371.00
2023-06-03T04:53:23.758Z,12624.00
2023-06-03T04:54:23.754Z,14972.00
2023-06-03T04:55:23.713Z,9768.00
2023-06-03T04:56:24.425Z,12222.00
2023-06-03T04:57:23.719Z,14177.00
2023-06-03T04:58:23.728Z,12625.00
2023-06-03T04:59:23.672Z,15896.00
2023-06-03T05:00:23.688Z,18892.00
2023-06-03T05:01:23.672Z,22167.00
2023-06-03T05:02:23.668Z,23839.00
2023-06-03T05:03:23.940Z,19796.00
2023-06-03T05:04:23.705Z,17404.00
2023-06-03T05:05:23.686Z,17577.00
2023-06-03T05:06:23.677Z,14317.00
2023-06-03T05:07:23.684Z,15798.00
2023-06-03T05:08:23.625Z,20705.00
2023-06-03T05:09:23.597Z,24819.00
2023-06-03T05:10:23.634Z,14801.00
2023-06-03T05:11:23.565Z,18081.00
2023-06-03T05:12:23.664Z,15807.00
2023-06-03T05:13:23.535Z,10784.00
2023-06-03T05:14:23.576Z,8261.00
2023-06-03T05:15:23.570Z,13228.00
2023-06-03T05:16:23.565Z,17219.00
2023-06-03T05:17:23.598Z,72220.00
2023-06-03T05:18:23.544Z,26429.00
2023-06-03T05:19:23.515Z,24721.00
2023-06-03T05:20:23.460Z,13132.00
2023-06-03T05:21:23.435Z,81622.00
2023-06-03T05:22:23.515Z,79655.00
2023-06-03T05:23:23.529Z,69453.00
2023-06-03T05:24:23.406Z,29734.00
2023-06-03T05:25:23.400Z,29148.00
2023-06-03T05:26:23.412Z,33124.00
2023-06-03T05:27:23.424Z,29676.00
2023-06-03T05:28:23.386Z,17493.00
2023-06-03T05:29:23.399Z,19428.00
2023-06-03T05:30:23.381Z,19067.00
2023-06-03T05:31:23.482Z,20684.00
2023-06-03T05:32:23.465Z,15967.00
2023-06-03T05:33:23.382Z,11190.00
2023-06-03T05:34:23.337Z,8540.00
2023-06-03T05:35:23.330Z,8953.00
2023-06-03T05:36:23.316Z,13197.00
2023-06-03T05:37:23.358Z,8840.00
2023-06-03T05:38:23.346Z,6458.00
2023-06-03T05:39:23.288Z,12349.00
2023-06-03T05:40:23.268Z,10858.00
2023-06-03T05:41:23.268Z,10653.00
2023-06-03T05:42:23.285Z,17260.00
2023-06-03T05:43:23.225Z,12213.00
2023-06-03T05:44:23.236Z,9025.00
2023-06-03T05:45:23.204Z,9477.00
2023-06-03T05:46:23.264Z,10009.00
2023-06-03T05:47:23.221Z,5515.00
2023-06-03T05:48:23.231Z,6872.00
2023-06-03T05:49:23.192Z,12877.00
2023-06-03T05:50:23.227Z,10405.00
2023-06-03T05:51:23.186Z,9673.00
2023-06-03T05:52:23.185Z,13980.00
2023-06-03T05:53:23.170Z,7870.00
2023-06-03T05:54:23.093Z,10815.00
2023-06-03T05:55:23.103Z,12106.00
2023-06-03T05:56:23.178Z,11874.00
2023-06-03T05:57:23.113Z,12471.00
2023-06-03T05:58:23.088Z,16626.00
2023-06-03T05:59:23.102Z,14578.00
2023-06-03T06:00:23.109Z,11030.00
2023-06-03T06:01:23.050Z,11165.00
2023-06-03T06:02:23.160Z,12523.00
2023-06-03T06:03:23.256Z,12948.00
2023-06-03T06:04:23.082Z,11333.00
2023-06-03T06:05:23.085Z,9466.00
2023-06-03T06:06:23.004Z,11656.00
2023-06-03T06:07:22.999Z,13642.00
2023-06-03T06:08:23.792Z,12100.00
2023-06-03T06:09:22.971Z,11730.00
2023-06-03T06:10:22.950Z,14684.00
2023-06-03T06:11:22.943Z,13345.00
2023-06-03T06:12:23.010Z,10924.00
2023-06-03T06:13:22.996Z,11556.00
2023-06-03T06:14:23.348Z,12078.00
2023-06-03T06:15:23.079Z,14104.00
2023-06-03T06:16:22.942Z,15058.00
2023-06-03T06:17:22.933Z,12796.00
2023-06-03T06:18:22.980Z,12714.00
2023-06-03T06:19:22.864Z,12139.00
2023-06-03T06:20:22.909Z,11858.00
2023-06-03T06:21:22.877Z,13417.00
2023-06-03T06:22:23.041Z,13923.00
2023-06-03T06:23:22.912Z,11830.00
2023-06-03T06:24:23.074Z,11038.00
2023-06-03T06:25:22.866Z,10630.00
2023-06-03T06:26:22.846Z,10521.00
2023-06-03T06:27:22.759Z,12962.00
2023-06-03T06:28:22.928Z,14526.00
2023-06-03T06:29:22.791Z,15601.00
2023-06-03T06:30:22.860Z,13803.00
2023-06-03T06:31:22.823Z,9065.00
2023-06-03T06:32:22.780Z,6182.00
2023-06-03T06:33:22.751Z,16043.00
2023-06-03T06:34:22.760Z,73034.00
2023-06-03T06:35:22.698Z,68759.00
2023-06-03T06:36:22.748Z,37496.00
2023-06-03T06:37:22.709Z,29792.00
2023-06-03T06:38:22.787Z,23637.00
2023-06-03T06:39:22.746Z,18754.00
2023-06-03T06:40:22.662Z,15416.00
2023-06-03T06:41:22.769Z,16592.00
2023-06-03T06:42:22.625Z,15460.00
2023-06-03T06:43:22.628Z,13769.00
2023-06-03T06:44:22.645Z,14287.00
2023-06-03T06:45:22.605Z,13699.00
2023-06-03T06:46:22.864Z,13720.00
2023-06-03T06:47:22.646Z,15058.00
2023-06-03T06:48:23.490Z,13961.00
2023-06-03T06:49:22.529Z,11422.00
2023-06-03T06:50:22.521Z,11107.00
2023-06-03T06:51:22.545Z,7538.00
2023-06-03T06:52:22.571Z,10756.00
2023-06-03T06:53:22.560Z,11764.00
2023-06-03T06:54:22.744Z,11546.00
2023-06-03T06:55:22.557Z,9198.00
2023-06-03T06:56:22.750Z,7629.00
2023-06-03T06:57:22.501Z,7402.00
2023-06-03T06:58:22.509Z,7417.00
2023-06-03T06:59:22.447Z,6867.00
2023-06-03T07:00:22.416Z,6593.00
2023-06-03T07:01:22.525Z,6507.00
2023-06-03T07:02:22.517Z,6331.00
2023-06-03T07:03:22.590Z,6255.00
2023-06-03T07:04:22.434Z,6106.00
2023-06-03T07:05:22.548Z,6290.00
2023-06-03T07:06:22.368Z,6304.00
2023-06-03T07:07:22.432Z,5826.00
2023-06-03T07:08:22.401Z,5562.00
2023-06-03T07:09:22.396Z,5618.00
2023-06-03T07:10:22.468Z,5605.00
2023-06-03T07:11:22.438Z,5473.00
2023-06-03T07:12:22.403Z,5351.00
2023-06-03T07:13:22.439Z,5299.00
2023-06-03T07:14:22.281Z,5410.00
2023-06-03T07:15:22.359Z,5425.00
2023-06-03T07:16:22.323Z,5333.00
2023-06-03T07:17:22.315Z,5123.00
2023-06-03T07:18:22.264Z,5469.00
2023-06-03T07:19:22.251Z,5307.00
2023-06-03T07:20:22.262Z,4430.00
2023-06-03T07:21:22.385Z,4093.00
2023-06-03T07:22:22.214Z,4075.00
2023-06-03T07:23:22.290Z,4115.00
2023-06-03T07:24:22.224Z,4160.00
2023-06-03T07:25:22.202Z,4140.00
2023-06-03T07:26:22.172Z,4114.00
2023-06-03T07:27:22.162Z,4117.00
2023-06-03T07:28:22.176Z,4050.00
2023-06-03T07:29:22.181Z,4147.00
2023-06-03T07:30:22.165Z,4164.00
2023-06-03T07:31:22.180Z,4158.00
2023-06-03T07:32:22.117Z,4159.00
2023-06-03T07:33:22.116Z,4178.00
2023-06-03T07:34:22.229Z,4184.00
2023-06-03T07:35:22.114Z,4152.00
2023-06-03T07:36:22.068Z,4174.00
2023-06-03T07:37:22.068Z,4162.00
2023-06-03T07:38:22.040Z,4158.00
2023-06-03T07:39:22.049Z,4120.00
2023-06-03T07:40:22.052Z,4119.00
2023-06-03T07:41:22.135Z,4108.00
2023-06-03T07:42:22.126Z,4096.00
2023-06-03T07:43:22.096Z,4093.00
2023-06-03T07:44:22.982Z,4112.00
2023-06-03T07:45:21.998Z,4118.00
2023-06-03T07:46:22.007Z,4129.00
2023-06-03T07:47:21.987Z,4133.00
2023-06-03T07:48:21.936Z,4141.00
2023-06-03T07:49:21.926Z,4144.00
2023-06-03T07:50:21.937Z,4138.00
2023-06-03T07:51:21.927Z,4161.00
2023-06-03T07:52:21.931Z,4167.00
2023-06-03T07:53:21.855Z,4176.00
2023-06-03T07:54:21.885Z,4185.00
2023-06-03T07:55:21.863Z,4193.00
2023-06-03T07:56:21.843Z,4205.00
2023-06-03T07:57:21.870Z,4207.00
2023-06-03T07:58:21.864Z,4185.00
2023-06-03T07:59:21.820Z,4238.00
2023-06-03T08:00:21.792Z,4219.00
2023-06-03T08:01:21.826Z,4222.00
2023-06-03T08:02:21.881Z,4232.00
2023-06-03T08:03:21.841Z,4218.00
2023-06-03T08:04:21.774Z,4221.00
2023-06-03T08:05:21.746Z,4224.00
2023-06-03T08:06:21.803Z,4213.00
2023-06-03T08:07:21.756Z,4222.00
2023-06-03T08:08:21.721Z,4246.00
2023-06-03T08:09:21.689Z,4220.00
2023-06-03T08:10:21.721Z,4254.00
2023-06-03T08:11:21.702Z,4235.00
2023-06-03T08:12:21.678Z,4314.00
2023-06-03T08:13:21.693Z,4218.00
2023-06-03T08:14:21.666Z,4276.00
2023-06-03T08:15:21.635Z,4291.00
2023-06-03T08:16:21.668Z,4316.00
2023-06-03T08:17:21.651Z,4363.00
2023-06-03T08:18:21.665Z,4367.00
2023-06-03T08:19:21.653Z,4351.00
2023-06-03T08:20:21.634Z,4436.00
2023-06-03T08:21:21.597Z,4411.00
2023-06-03T08:22:21.598Z,4448.00
2023-06-03T08:23:21.596Z,4459.00
2023-06-03T08:24:21.562Z,4467.00
2023-06-03T08:25:21.565Z,4539.00
2023-06-03T08:26:21.534Z,4556.00
2023-06-03T08:27:21.533Z,4528.00
2023-06-03T08:28:21.528Z,4489.00
2023-06-03T08:29:21.521Z,4467.00
2023-06-03T08:30:21.548Z,4478.00
2023-06-03T08:31:21.484Z,4497.00
2023-06-03T08:32:21.508Z,4512.00
2023-06-03T08:33:21.471Z,4525.00
2023-06-03T08:34:21.473Z,4546.00
2023-06-03T08:35:21.432Z,4555.00
2023-06-03T08:36:21.431Z,4576.00
2023-06-03T08:37:21.397Z,4592.00
2023-06-03T08:38:21.411Z,4607.00
2023-06-03T08:39:21.419Z,4635.00
2023-06-03T08:40:21.455Z,4665.00
2023-06-03T08:41:21.371Z,4683.00
2023-06-03T08:42:21.380Z,4717.00
2023-06-03T08:43:21.427Z,4732.00
2023-06-03T08:44:21.349Z,4781.00
2023-06-03T08:45:21.340Z,4802.00
2023-06-03T08:46:21.439Z,4821.00
2023-06-03T08:47:21.354Z,4827.00
2023-06-03T08:48:21.313Z,4911.00
2023-06-03T08:49:21.373Z,4932.00
2023-06-03T08:50:21.276Z,4982.00
2023-06-03T08:51:21.283Z,4719.00
2023-06-03T08:52:21.296Z,5343.00
2023-06-03T08:53:21.280Z,5141.00
2023-06-03T08:54:21.257Z,4870.00
2023-06-03T08:55:21.253Z,4091.00
2023-06-03T08:56:21.201Z,4551.00
2023-06-03T08:57:21.272Z,4022.00
2023-06-03T08:58:21.260Z,4662.00
2023-06-03T08:59:21.232Z,4079.00
2023-06-03T09:00:21.306Z,4632.00
2023-06-03T09:01:21.210Z,5091.00
2023-06-03T09:02:21.205Z,5212.00
2023-06-03T09:03:21.273Z,5224.00
2023-06-03T09:04:21.263Z,5245.00
2023-06-03T09:05:21.278Z,5278.00
2023-06-03T09:06:21.114Z,5317.00
2023-06-03T09:07:21.149Z,5352.00
2023-06-03T09:08:21.522Z,5370.00
2023-06-03T09:09:21.128Z,5394.00
2023-06-03T09:10:21.179Z,5401.00
2023-06-03T09:11:21.087Z,5456.00
2023-06-03T09:12:21.084Z,5405.00
2023-06-03T09:13:21.157Z,5416.00
2023-06-03T09:14:21.046Z,5430.00
2023-06-03T09:15:21.006Z,5464.00
2023-06-03T09:16:21.063Z,5471.00
2023-06-03T09:17:21.029Z,5285.00
2023-06-03T09:18:21.101Z,6086.00
2023-06-03T09:19:21.106Z,4576.00
2023-06-03T09:20:21.134Z,5357.00
2023-06-03T09:21:21.032Z,5618.00
2023-06-03T09:22:20.988Z,5458.00
2023-06-03T09:23:20.951Z,5583.00
2023-06-03T09:24:20.931Z,5588.00
2023-06-03T09:25:21.050Z,5592.00
2023-06-03T09:26:20.914Z,5617.00
2023-06-03T09:27:20.906Z,5639.00
2023-06-03T09:28:20.995Z,5673.00
2023-06-03T09:29:20.917Z,5703.00
2023-06-03T09:30:20.896Z,5802.00
2023-06-03T09:31:20.854Z,5836.00
2023-06-03T09:32:20.987Z,5530.00
2023-06-03T09:33:20.847Z,5823.00
2023-06-03T09:34:20.900Z,5815.00
2023-06-03T09:35:20.802Z,5809.00
2023-06-03T09:36:23.837Z,5854.00
2023-06-03T09:37:20.833Z,5867.00
2023-06-03T09:38:20.936Z,5885.00
2023-06-03T09:39:20.762Z,5887.00
2023-06-03T09:40:20.874Z,5924.00
2023-06-03T09:41:20.797Z,5956.00
2023-06-03T09:42:20.814Z,5974.00
2023-06-03T09:43:20.789Z,5956.00
2023-06-03T09:44:20.762Z,5952.00
2023-06-03T09:45:20.705Z,5993.00
2023-06-03T09:46:20.718Z,6024.00
2023-06-03T09:47:20.697Z,6030.00
2023-06-03T09:48:20.674Z,6032.00
2023-06-03T09:49:33.474Z,6081.00
2023-06-03T09:50:21.658Z,6097.00
2023-06-03T09:51:20.654Z,6149.00
2023-06-03T09:52:20.745Z,6189.00
2023-06-03T09:53:20.682Z,6005.00
2023-06-03T09:54:20.630Z,6352.00
2023-06-03T09:55:20.721Z,6539.00
2023-06-03T09:56:20.687Z,5029.00
2023-06-03T09:57:20.872Z,5890.00
2023-06-03T09:58:20.573Z,5945.00
2023-06-03T09:59:20.659Z,6055.00
2023-06-03T10:00:20.586Z,6250.00
2023-06-03T10:01:21.337Z,6605.00
2023-06-03T10:02:20.571Z,3832.00
2023-06-03T10:03:21.224Z,1251.00
2023-06-03T10:04:20.607Z,6487.00
2023-06-03T10:05:20.622Z,6330.00
2023-06-03T10:06:20.567Z,6366.00
2023-06-03T10:07:20.622Z,6364.00
2023-06-03T10:08:20.537Z,6254.00
2023-06-03T10:09:20.650Z,6407.00
2023-06-03T10:10:20.577Z,6346.00
2023-06-03T10:11:20.653Z,6359.00
2023-06-03T10:12:20.402Z,6391.00
2023-06-03T10:13:20.436Z,6946.00
2023-06-03T10:14:20.454Z,6916.00
2023-06-03T10:15:21.111Z,5876.00
2023-06-03T10:16:20.453Z,4698.00
2023-06-03T10:17:20.712Z,6544.00
2023-06-03T10:18:20.380Z,6590.00
2023-06-03T10:19:20.668Z,7427.00
2023-06-03T10:20:20.442Z,7710.00
2023-06-03T10:21:20.400Z,3206.00
2023-06-03T10:22:20.348Z,5708.00
2023-06-03T10:23:20.345Z,6257.00
2023-06-03T10:24:20.272Z,6872.00
2023-06-03T10:25:20.277Z,7709.00
2023-06-03T10:26:20.323Z,5837.00
2023-06-03T10:27:20.295Z,6033.00
2023-06-03T10:28:20.281Z,6716.00
2023-06-03T10:29:20.347Z,6845.00
2023-06-03T10:30:20.309Z,6811.00
2023-06-03T10:31:20.319Z,6989.00
2023-06-03T10:32:20.225Z,7045.00
2023-06-03T10:33:20.218Z,7119.00
2023-06-03T10:34:20.174Z,7231.00
2023-06-03T10:35:20.281Z,7154.00
2023-06-03T10:36:20.225Z,7069.00
2023-06-03T10:37:20.176Z,7163.00
2023-06-03T10:38:20.265Z,6958.00
2023-06-03T10:39:20.135Z,7066.00
2023-06-03T10:40:20.121Z,8135.00
2023-06-03T10:41:20.133Z,5890.00
2023-06-03T10:42:20.085Z,7278.00
2023-06-03T10:43:20.177Z,7549.00
2023-06-03T10:44:20.257Z,7070.00
2023-06-03T10:45:20.071Z,7152.00
2023-06-03T10:46:20.088Z,7172.00
2023-06-03T10:47:20.096Z,7276.00
2023-06-03T10:48:20.059Z,7247.00
2023-06-03T10:49:20.073Z,7223.00
2023-06-03T10:50:20.006Z,7480.00
2023-06-03T10:51:20.045Z,7171.00
2023-06-03T10:52:20.066Z,7158.00
2023-06-03T10:53:20.202Z,7261.00
2023-06-03T10:54:19.980Z,6672.00
2023-06-03T10:55:20.071Z,7265.00
2023-06-03T10:56:19.955Z,6411.00
2023-06-03T10:57:20.003Z,6975.00
2023-06-03T10:58:20.098Z,6888.00
2023-06-03T10:59:19.970Z,7227.00
2023-06-03T11:00:19.996Z,7303.00
2023-06-03T11:01:19.957Z,7299.00
2023-06-03T11:02:20.180Z,7386.00
2023-06-03T11:03:19.883Z,7044.00
2023-06-03T11:04:19.909Z,6778.00
2023-06-03T11:05:19.872Z,6726.00
2023-06-03T11:06:19.890Z,6205.00
2023-06-03T11:07:19.864Z,6526.00
2023-06-03T11:08:19.898Z,7246.00
2023-06-03T11:09:19.834Z,7266.00
2023-06-03T11:10:19.935Z,7805.00
2023-06-03T11:11:19.803Z,6916.00
2023-06-03T11:12:19.794Z,6927.00
2023-06-03T11:13:19.773Z,8044.00
2023-06-03T11:14:19.766Z,5986.00
2023-06-03T11:15:19.785Z,7103.00
2023-06-03T11:16:19.746Z,6898.00
2023-06-03T11:17:19.996Z,7517.00
2023-06-03T11:18:19.732Z,6850.00
2023-06-03T11:19:19.734Z,8636.00
2023-06-03T11:20:19.702Z,7760.00
2023-06-03T11:21:19.667Z,8450.00
2023-06-03T11:22:19.668Z,3899.00
2023-06-03T11:23:19.734Z,5818.00
2023-06-03T11:24:19.681Z,6980.00
2023-06-03T11:25:19.698Z,7236.00
2023-06-03T11:26:19.684Z,7655.00
2023-06-03T11:27:19.615Z,7610.00
2023-06-03T11:28:19.692Z,6353.00
2023-06-03T11:29:19.600Z,7335.00
2023-06-03T11:30:19.625Z,7388.00
2023-06-03T11:31:19.619Z,7182.00
2023-06-03T11:32:19.662Z,8018.00
2023-06-03T11:33:19.543Z,8054.00
2023-06-03T11:34:19.539Z,7457.00
2023-06-03T11:35:19.530Z,7206.00
2023-06-03T11:36:19.521Z,6486.00
2023-06-03T11:37:19.538Z,7133.00
2023-06-03T11:38:19.534Z,6927.00
2023-06-03T11:39:19.526Z,7763.00
2023-06-03T11:40:19.555Z,7974.00
2023-06-03T11:41:19.534Z,7982.00
2023-06-03T11:42:19.521Z,8318.00
2023-06-03T11:43:19.520Z,9114.00
2023-06-03T11:44:28.726Z,5710.00
2023-06-03T11:45:20.442Z,7644.00
2023-06-03T11:46:19.442Z,8446.00
2023-06-03T11:47:19.430Z,6776.00
2023-06-03T11:48:19.484Z,7672.00
2023-06-03T11:49:19.455Z,7853.00
2023-06-03T11:50:19.413Z,7739.00
2023-06-03T11:51:19.386Z,10187.00
2023-06-03T11:52:19.364Z,5924.00
2023-06-03T11:53:19.420Z,5837.00
2023-06-03T11:54:19.370Z,6002.00
2023-06-03T11:55:19.328Z,6638.00
2023-06-03T11:56:19.355Z,7117.00
2023-06-03T11:57:19.408Z,7736.00
2023-06-03T11:58:19.345Z,7456.00
2023-06-03T11:59:19.278Z,9120.00
2023-06-03T12:00:19.355Z,5809.00
2023-06-03T12:01:19.337Z,7265.00
2023-06-03T12:02:19.406Z,7521.00
2023-06-03T12:03:19.495Z,8745.00
2023-06-03T12:04:19.252Z,5538.00
2023-06-03T12:05:19.249Z,7981.00
2023-06-03T12:06:19.266Z,4618.00
2023-06-03T12:07:19.215Z,7757.00
2023-06-03T12:08:19.204Z,7261.00
2023-06-03T12:09:19.216Z,7600.00
2023-06-03T12:10:19.183Z,8553.00
2023-06-03T12:11:19.184Z,6078.00
2023-06-03T12:12:19.302Z,7651.00
2023-06-03T12:13:19.175Z,6678.00
2023-06-03T12:14:19.130Z,7677.00
2023-06-03T12:15:19.283Z,5557.00
2023-06-03T12:16:19.149Z,5311.00
2023-06-03T12:17:19.122Z,9196.00
2023-06-03T12:18:19.108Z,5377.00